createdAt,value
2023-05-05T00:01:33.132Z,14.99
2023-05-05T00:04:36.169Z,14.89
2023-05-05T00:07:38.447Z,15.01
2023-05-05T00:10:42.586Z,15.05
2023-05-05T00:13:44.912Z,14.85
2023-05-05T00:16:47.648Z,14.77
2023-05-05T00:19:50.063Z,14.78
2023-05-05T00:22:52.695Z,14.77
2023-05-05T00:25:55.059Z,14.86
2023-05-05T00:28:57.654Z,14.73
2023-05-05T00:32:00.145Z,14.73
2023-05-05T00:35:02.920Z,14.73
2023-05-05T00:38:05.334Z,14.68
2023-05-05T00:41:08.066Z,14.63
2023-05-05T00:44:10.591Z,14.52
2023-05-05T00:47:14.276Z,14.54
2023-05-05T00:50:28.022Z,14.56
2023-05-05T00:53:31.188Z,14.62
2023-05-05T00:56:33.629Z,14.62
2023-05-05T00:59:38.189Z,14.49
2023-05-05T01:02:41.438Z,14.58
2023-05-05T01:06:06.554Z,14.50
2023-05-05T01:09:35.075Z,14.43
2023-05-05T01:13:33.591Z,14.44
2023-05-05T01:16:41.525Z,14.56
2023-05-05T01:20:20.816Z,14.52
2023-05-05T01:24:04.783Z,14.42
2023-05-05T01:27:30.441Z,14.33
2023-05-05T01:30:54.698Z,14.29
2023-05-05T01:34:06.146Z,14.31
2023-05-05T01:37:15.141Z,14.30
2023-05-05T01:40:23.005Z,14.26
2023-05-05T01:43:29.609Z,14.22
2023-05-05T01:46:35.455Z,14.17
2023-05-05T01:49:38.611Z,14.08
2023-05-05T01:52:42.494Z,14.18
2023-05-05T01:55:46.856Z,14.12
2023-05-05T01:58:51.843Z,14.10
2023-05-05T02:01:56.416Z,14.15
2023-05-05T02:05:00.233Z,14.18
2023-05-05T02:08:04.555Z,14.18
2023-05-05T02:11:10.052Z,14.13
2023-05-05T02:14:14.367Z,14.08
2023-05-05T02:17:18.649Z,14.12
2023-05-05T02:20:22.517Z,14.01
2023-05-05T02:23:25.767Z,14.05
2023-05-05T02:26:31.274Z,14.01
2023-05-05T02:29:44.789Z,14.01
2023-05-05T02:33:03.420Z,13.94
2023-05-05T02:36:12.471Z,13.93
2023-05-05T02:39:26.131Z,14.06
2023-05-05T02:42:39.391Z,13.87
2023-05-05T02:45:41.957Z,13.94
2023-05-05T02:48:45.085Z,13.85
2023-05-05T02:51:47.580Z,13.73
2023-05-05T02:54:51.667Z,13.71
2023-05-05T02:58:03.861Z,13.55
2023-05-05T03:01:22.967Z,13.52
2023-05-05T03:04:29.496Z,13.52
2023-05-05T03:07:40.986Z,13.47
2023-05-05T03:10:52.705Z,13.36
2023-05-05T03:14:13.790Z,13.37
2023-05-05T03:17:18.393Z,13.25
2023-05-05T03:20:22.252Z,13.30
2023-05-05T03:23:25.115Z,13.12
2023-05-05T03:26:28.264Z,13.15
2023-05-05T03:29:30.678Z,13.03
2023-05-05T03:32:34.308Z,13.11
2023-05-05T03:35:36.731Z,13.07
2023-05-05T03:38:42.015Z,13.03
2023-05-05T03:41:44.812Z,12.87
2023-05-05T03:44:48.027Z,12.95
2023-05-05T03:47:50.891Z,12.84
2023-05-05T03:50:54.117Z,13.03
2023-05-05T03:53:56.999Z,13.03
2023-05-05T03:57:00.004Z,13.09
2023-05-05T04:00:02.922Z,13.03
2023-05-05T04:03:06.050Z,13.12
2023-05-05T04:06:08.911Z,13.10
2023-05-05T04:09:12.184Z,13.10
2023-05-05T04:12:14.955Z,13.11
2023-05-05T04:15:17.547Z,13.05
2023-05-05T04:18:20.762Z,12.97
2023-05-05T04:21:23.366Z,13.18
2023-05-05T04:24:26.400Z,13.20
2023-05-05T04:27:30.334Z,13.26
2023-05-05T04:30:33.294Z,13.33
2023-05-05T04:33:35.774Z,13.28
2023-05-05T04:36:38.598Z,13.37
2023-05-05T04:39:41.640Z,13.37
2023-05-05T04:42:44.489Z,13.31
2023-05-05T04:45:56.147Z,13.34
2023-05-05T04:48:59.385Z,13.30
2023-05-05T04:52:02.278Z,13.35
2023-05-05T04:55:05.494Z,13.32
2023-05-05T04:58:08.727Z,13.28
2023-05-05T05:01:11.411Z,13.29
2023-05-05T05:04:18.357Z,13.32
2023-05-05T05:07:21.400Z,13.38
2023-05-05T05:10:23.780Z,13.47
2023-05-05T05:13:26.471Z,13.38
2023-05-05T05:16:28.946Z,13.54
2023-05-05T05:19:31.776Z,13.47
2023-05-05T05:22:34.972Z,13.39
2023-05-05T05:25:38.001Z,13.29
2023-05-05T05:28:41.878Z,13.41
2023-05-05T05:31:44.623Z,13.51
2023-05-05T05:34:47.884Z,13.63
2023-05-05T05:37:52.665Z,13.79
2023-05-05T05:40:55.731Z,13.81
2023-05-05T05:43:58.884Z,13.96
2023-05-05T05:47:01.532Z,13.98
2023-05-05T05:50:05.214Z,14.08
2023-05-05T05:53:07.772Z,14.15
2023-05-05T05:56:10.530Z,14.29
2023-05-05T05:59:13.402Z,14.52
2023-05-05T06:02:16.690Z,14.99
2023-05-05T06:05:19.643Z,15.48
2023-05-05T06:08:24.829Z,15.85
2023-05-05T06:11:28.025Z,16.14
2023-05-05T06:14:30.594Z,16.35
2023-05-05T06:17:33.952Z,16.32
2023-05-05T06:20:36.515Z,16.41
2023-05-05T06:23:39.587Z,16.27
2023-05-05T06:26:42.172Z,16.64
2023-05-05T06:29:44.889Z,16.65
2023-05-05T06:32:47.398Z,16.82
2023-05-05T06:35:52.085Z,16.96
2023-05-05T06:38:54.578Z,16.80
2023-05-05T06:41:57.315Z,17.21
2023-05-05T06:44:59.739Z,17.40
2023-05-05T06:48:02.395Z,17.28
2023-05-05T06:51:04.956Z,17.42
2023-05-05T06:54:07.717Z,17.84
2023-05-05T06:57:10.043Z,18.02
2023-05-05T07:00:14.027Z,18.24
2023-05-05T07:03:16.432Z,18.70
2023-05-05T07:06:19.116Z,18.48
2023-05-05T07:09:21.565Z,18.74
2023-05-05T07:12:24.371Z,18.83
2023-05-05T07:15:29.314Z,18.72
2023-05-05T07:18:32.612Z,18.52
2023-05-05T07:21:35.215Z,18.81
2023-05-05T07:24:37.893Z,18.81
2023-05-05T07:27:40.785Z,18.52
2023-05-05T07:30:43.417Z,18.71
2023-05-05T07:33:46.133Z,19.01
2023-05-05T07:36:48.820Z,18.20
2023-05-05T07:39:51.181Z,18.53
2023-05-05T07:42:53.833Z,18.94
2023-05-05T07:45:56.597Z,18.72
2023-05-05T07:48:59.329Z,18.43
2023-05-05T07:52:01.775Z,18.46
2023-05-05T07:55:04.935Z,18.63
2023-05-05T07:58:07.368Z,18.78
2023-05-05T08:01:11.334Z,18.80
2023-05-05T08:04:14.121Z,18.61
2023-05-05T08:07:16.582Z,18.84
2023-05-05T08:10:19.292Z,18.91
2023-05-05T08:13:21.661Z,18.92
2023-05-05T08:16:24.442Z,19.24
2023-05-05T08:19:29.600Z,19.05
2023-05-05T08:22:32.810Z,19.23
2023-05-05T08:25:35.426Z,19.24
2023-05-05T08:28:38.131Z,19.61
2023-05-05T08:31:40.518Z,19.62
2023-05-05T08:34:43.394Z,19.67
2023-05-05T08:37:46.222Z,19.16
2023-05-05T08:40:51.862Z,19.36
2023-05-05T08:43:54.626Z,19.61
2023-05-05T08:46:59.403Z,19.70
2023-05-05T08:50:02.411Z,19.79
2023-05-05T08:53:41.407Z,20.17
2023-05-05T08:56:46.854Z,20.19
2023-05-05T08:59:50.142Z,20.63
2023-05-05T09:02:54.610Z,20.60
2023-05-05T09:05:58.029Z,20.68
2023-05-05T09:09:01.091Z,20.81
2023-05-05T09:12:03.909Z,20.45
2023-05-05T09:15:11.674Z,20.14
2023-05-05T09:18:14.537Z,20.25
2023-05-05T09:21:24.911Z,20.50
2023-05-05T09:24:27.648Z,20.65
2023-05-05T09:27:30.480Z,20.64
2023-05-05T09:30:34.702Z,20.86
2023-05-05T09:33:37.757Z,20.00
2023-05-05T09:36:44.391Z,20.50
2023-05-05T09:39:54.475Z,21.19
2023-05-05T09:43:06.875Z,21.14
2023-05-05T09:46:09.325Z,21.18
2023-05-05T09:49:19.448Z,21.29
2023-05-05T09:52:21.947Z,21.04
2023-05-05T09:55:25.651Z,21.40
2023-05-05T09:58:30.164Z,21.37
2023-05-05T10:01:32.860Z,21.31
2023-05-05T10:04:36.144Z,21.37
2023-05-05T10:07:41.095Z,21.69
2023-05-05T10:10:52.079Z,21.40
2023-05-05T10:13:54.634Z,21.59
2023-05-05T10:17:00.340Z,21.31
2023-05-05T10:20:04.049Z,21.45
2023-05-05T10:23:10.712Z,21.63
2023-05-05T10:26:15.449Z,21.80
2023-05-05T10:29:31.475Z,22.04
2023-05-05T10:36:29.685Z,22.60
2023-05-05T10:39:34.422Z,22.62
2023-05-05T10:42:40.184Z,22.78
2023-05-05T10:45:43.518Z,22.51
2023-05-05T10:49:14.007Z,22.70
2023-05-05T10:52:28.351Z,22.91
2023-05-05T10:55:57.258Z,22.96
2023-05-05T10:59:00.614Z,22.74
2023-05-05T11:02:26.964Z,23.06
2023-05-05T11:05:29.524Z,22.86
2023-05-05T11:08:33.839Z,23.19
2023-05-05T11:12:09.034Z,23.47
2023-05-05T11:15:26.814Z,23.61
2023-05-05T11:18:40.234Z,23.71
2023-05-05T11:22:01.981Z,23.49
2023-05-05T11:25:35.933Z,23.95
2023-05-05T11:29:08.493Z,23.43
2023-05-05T11:32:12.144Z,23.93
2023-05-05T11:35:15.569Z,23.59
2023-05-05T11:38:22.262Z,23.73
2023-05-05T11:41:34.084Z,24.09
2023-05-05T11:44:36.603Z,24.11
2023-05-05T11:47:39.649Z,24.09
2023-05-05T11:50:42.182Z,23.81
2023-05-05T11:53:49.357Z,24.20
2023-05-05T11:56:53.524Z,24.40
2023-05-05T12:00:01.781Z,24.22
2023-05-05T12:03:07.077Z,24.38
2023-05-05T12:06:09.884Z,24.80
2023-05-05T12:09:20.604Z,24.52
2023-05-05T12:12:37.306Z,24.75
2023-05-05T12:15:39.806Z,24.47
2023-05-05T12:18:42.907Z,24.71
2023-05-05T12:21:45.734Z,24.46
2023-05-05T12:25:05.690Z,24.45
2023-05-05T12:28:09.454Z,24.26
2023-05-05T12:31:12.513Z,23.98
2023-05-05T12:34:15.950Z,24.23
2023-05-05T12:37:19.222Z,24.19
2023-05-05T12:40:47.352Z,24.08
2023-05-05T12:43:58.436Z,24.24
2023-05-05T12:47:01.629Z,24.50
2023-05-05T12:50:04.579Z,24.25
2023-05-05T12:53:06.956Z,24.53
2023-05-05T12:56:34.860Z,24.70
2023-05-05T12:59:37.229Z,24.47
2023-05-05T13:02:40.051Z,24.40
2023-05-05T13:05:42.721Z,24.27
2023-05-05T13:08:45.446Z,24.72
2023-05-05T13:11:47.756Z,24.69
2023-05-05T13:14:50.436Z,24.66
2023-05-05T13:18:00.417Z,24.80
2023-05-05T13:21:03.115Z,24.46
2023-05-05T13:24:23.055Z,24.73
2023-05-05T13:27:28.704Z,24.56
2023-05-05T13:30:31.080Z,24.56
2023-05-05T13:33:34.817Z,24.75
2023-05-05T13:36:37.675Z,24.70
2023-05-05T13:39:40.481Z,24.93
2023-05-05T13:42:42.930Z,25.08
2023-05-05T13:45:45.974Z,25.35
2023-05-05T13:48:48.739Z,24.97
2023-05-05T13:51:51.411Z,24.99
2023-05-05T13:54:53.691Z,24.95
2023-05-05T13:57:56.428Z,24.80
2023-05-05T14:00:58.792Z,24.75
2023-05-05T14:04:04.453Z,24.43
2023-05-05T14:07:07.943Z,24.59
2023-05-05T14:10:10.910Z,24.79
2023-05-05T14:13:15.514Z,24.47
2023-05-05T14:16:18.310Z,24.66
2023-05-05T14:19:20.701Z,24.69
2023-05-05T14:22:23.593Z,24.61
2023-05-05T14:25:25.996Z,24.68
2023-05-05T14:28:28.698Z,24.76
2023-05-05T14:31:31.067Z,24.66
2023-05-05T14:34:33.781Z,24.76
2023-05-05T14:37:36.134Z,24.62
2023-05-05T14:40:39.304Z,24.57
2023-05-05T14:43:41.978Z,24.31
2023-05-05T14:46:46.181Z,24.46
2023-05-05T14:49:48.941Z,24.07
2023-05-05T14:52:51.635Z,24.15
2023-05-05T14:55:53.933Z,24.10
2023-05-05T14:58:56.556Z,24.04
2023-05-05T15:01:59.191Z,23.88
2023-05-05T15:05:02.181Z,23.94
2023-05-05T15:08:04.768Z,24.11
2023-05-05T15:11:07.414Z,24.13
2023-05-05T15:14:09.729Z,24.04
2023-05-05T15:17:12.340Z,24.12
2023-05-05T15:20:14.966Z,24.01
2023-05-05T15:23:17.731Z,23.79
2023-05-05T15:26:20.123Z,23.62
2023-05-05T15:29:22.898Z,23.64
2023-05-05T15:32:25.381Z,23.58
2023-05-05T15:35:28.164Z,23.58
2023-05-05T15:38:30.630Z,23.84
2023-05-05T15:41:36.510Z,23.88
2023-05-05T15:44:39.020Z,23.73
2023-05-05T15:47:41.809Z,23.53
2023-05-05T15:50:44.230Z,23.50
2023-05-05T15:53:47.263Z,23.43
2023-05-05T15:56:49.734Z,23.43
2023-05-05T15:59:53.120Z,23.30
2023-05-05T16:02:56.126Z,23.28
2023-05-05T16:05:58.861Z,23.22
2023-05-05T16:09:01.346Z,23.14
2023-05-05T16:12:04.402Z,23.23
2023-05-05T16:15:07.488Z,23.21
2023-05-05T16:18:10.576Z,23.12
2023-05-05T16:21:12.993Z,23.13
2023-05-05T16:24:16.675Z,23.06
2023-05-05T16:27:19.036Z,22.99
2023-05-05T16:30:21.645Z,23.05
2023-05-05T16:33:24.735Z,23.15
2023-05-05T16:36:27.929Z,23.11
2023-05-05T16:39:30.774Z,23.06
2023-05-05T16:42:33.522Z,23.03
2023-05-05T16:45:35.873Z,23.03
2023-05-05T16:48:38.560Z,22.91
2023-05-05T16:51:40.939Z,22.74
2023-05-05T16:54:43.654Z,22.78
2023-05-05T16:57:47.249Z,22.65
2023-05-05T17:00:50.871Z,22.62
2023-05-05T17:03:55.352Z,22.52
2023-05-05T17:06:58.047Z,22.48
2023-05-05T17:10:00.338Z,22.43
2023-05-05T17:13:03.071Z,22.28
2023-05-05T17:16:05.729Z,22.23
2023-05-05T17:19:08.505Z,22.19
2023-05-05T17:22:11.015Z,22.16
2023-05-05T17:25:13.786Z,21.99
2023-05-05T17:28:17.301Z,22.02
2023-05-05T17:31:19.940Z,21.96
2023-05-05T17:34:22.302Z,21.91
2023-05-05T17:37:25.090Z,21.84
2023-05-05T17:40:27.472Z,21.77
2023-05-05T17:43:30.116Z,21.80
2023-05-05T17:46:32.538Z,21.75
2023-05-05T17:49:35.148Z,21.69
2023-05-05T17:52:38.010Z,21.66
2023-05-05T17:55:44.893Z,21.57
2023-05-05T17:58:48.225Z,21.48
2023-05-05T18:01:51.188Z,21.45
2023-05-05T18:04:53.944Z,21.42
2023-05-05T18:07:56.329Z,21.37
2023-05-05T18:10:58.908Z,21.22
2023-05-05T18:14:01.438Z,21.18
2023-05-05T18:17:04.800Z,21.14
2023-05-05T18:20:07.782Z,21.19
2023-05-05T18:23:11.236Z,21.13
2023-05-05T18:26:13.619Z,20.86
2023-05-05T18:29:17.418Z,20.84
2023-05-05T18:32:20.068Z,20.62
2023-05-05T18:35:23.567Z,20.61
2023-05-05T18:38:26.014Z,20.55
2023-05-05T18:41:28.645Z,20.45
2023-05-05T18:44:32.809Z,20.25
2023-05-05T18:47:37.566Z,20.21
2023-05-05T18:50:39.936Z,20.03
2023-05-05T18:53:42.652Z,20.12
2023-05-05T18:56:44.987Z,20.01
2023-05-05T18:59:47.664Z,19.92
2023-05-05T19:02:50.099Z,19.90
2023-05-05T19:05:52.872Z,19.86
2023-05-05T19:08:56.642Z,19.77
2023-05-05T19:11:59.432Z,19.84
2023-05-05T19:15:01.991Z,19.71
2023-05-05T19:18:06.408Z,19.75
2023-05-05T19:21:08.999Z,19.63
2023-05-05T19:24:11.779Z,19.56
2023-05-05T19:27:16.578Z,19.49
2023-05-05T19:30:19.594Z,19.48
2023-05-05T19:33:22.489Z,19.19
2023-05-05T19:36:25.994Z,19.11
2023-05-05T19:39:28.353Z,19.02
2023-05-05T19:42:30.989Z,18.96
2023-05-05T19:45:33.894Z,19.02
2023-05-05T19:48:37.166Z,18.95
2023-05-05T19:51:39.619Z,18.74
2023-05-05T19:54:43.494Z,18.83
2023-05-05T19:57:45.908Z,18.75
2023-05-05T20:00:48.652Z,18.81
2023-05-05T20:03:54.459Z,18.69
2023-05-05T20:06:57.342Z,18.75
2023-05-05T20:10:00.818Z,18.71
2023-05-05T20:13:03.355Z,18.70
2023-05-05T20:16:07.456Z,18.67
2023-05-05T20:19:10.014Z,18.61
2023-05-05T20:22:12.701Z,18.45
2023-05-05T20:25:18.752Z,18.42
2023-05-05T20:28:21.442Z,18.26
2023-05-05T20:31:23.901Z,18.26
2023-05-05T20:34:27.704Z,18.18
2023-05-05T20:37:30.343Z,18.08
2023-05-05T20:40:33.630Z,18.02
2023-05-05T20:43:36.874Z,18.10
2023-05-05T20:46:39.679Z,17.99
2023-05-05T20:49:42.153Z,18.04
2023-05-05T20:52:44.892Z,17.92
2023-05-05T20:55:47.242Z,17.84
2023-05-05T20:58:50.148Z,17.78
2023-05-05T21:01:52.541Z,17.76
2023-05-05T21:04:58.467Z,17.64
2023-05-05T21:08:01.334Z,17.55
2023-05-05T21:11:08.884Z,17.59
2023-05-05T21:14:11.320Z,17.46
2023-05-05T21:17:14.112Z,17.58
2023-05-05T21:20:17.009Z,17.57
2023-05-05T21:23:19.659Z,17.60
2023-05-05T21:26:22.148Z,17.40
2023-05-05T21:29:24.827Z,17.38
2023-05-05T21:32:27.376Z,17.24
2023-05-05T21:35:30.120Z,17.19
2023-05-05T21:38:32.596Z,17.00
2023-05-05T21:41:51.942Z,17.09
2023-05-05T21:45:03.705Z,17.00
2023-05-05T21:48:22.777Z,16.99
2023-05-05T21:51:37.711Z,16.99
2023-05-05T21:54:40.890Z,16.90
2023-05-05T21:57:43.318Z,16.86
2023-05-05T22:00:49.494Z,16.87
2023-05-05T22:03:52.351Z,16.90
2023-05-05T22:06:54.799Z,16.89
2023-05-05T22:09:57.443Z,16.79
2023-05-05T22:12:59.960Z,16.79
2023-05-05T22:16:02.759Z,16.85
2023-05-05T22:19:05.099Z,16.77
2023-05-05T22:22:07.876Z,16.76
2023-05-05T22:25:10.416Z,16.75
2023-05-05T22:28:13.226Z,16.69
2023-05-05T22:31:16.524Z,16.58
2023-05-05T22:34:20.464Z,16.67
2023-05-05T22:37:23.517Z,16.53
2023-05-05T22:40:26.173Z,16.45
2023-05-05T22:43:28.496Z,16.48
2023-05-05T22:46:31.208Z,16.43
2023-05-05T22:49:33.718Z,16.36
2023-05-05T22:52:36.622Z,16.29
2023-05-05T22:55:38.898Z,16.24
2023-05-05T22:58:41.538Z,16.14
2023-05-05T23:01:43.960Z,15.89
2023-05-05T23:04:46.666Z,15.92
2023-05-05T23:07:49.021Z,15.84
2023-05-05T23:10:51.669Z,15.79
2023-05-05T23:13:54.115Z,15.66
2023-05-05T23:16:56.867Z,15.80
2023-05-05T23:19:59.417Z,15.74
2023-05-05T23:23:02.108Z,15.77
2023-05-05T23:26:04.493Z,15.86
2023-05-05T23:29:07.148Z,15.85
2023-05-05T23:32:09.462Z,15.75
2023-05-05T23:35:12.511Z,15.80
2023-05-05T23:38:14.912Z,15.77
2023-05-05T23:41:18.915Z,15.74
2023-05-05T23:44:21.250Z,15.85
2023-05-05T23:47:24.005Z,15.80
2023-05-05T23:50:27.815Z,15.72
2023-05-05T23:53:30.542Z,15.70
2023-05-05T23:56:32.910Z,15.49
2023-05-05T23:59:35.622Z,15.33
